Terminal Aerodrome Forecast
Issued by NWS

Home | Current Version | Previous Version | Text Only | Print | Product List | Glossary On
Versions: 1 2 3 4 5 6 7 8 9 10 11 12 13 14 15 16 17 18 19 20 21 22 23 24 25 26 27 28 29 30 31 32 33 34 35 36 37 38 39 40 41 42 43 44 45
143
FTUS43 KDVN 302005 AAD
TAFBRL
TAF AMD
KBRL 302005Z 3020/3118 08012KT 6SM -DZ BR OVC003
     FM302100 05010KT 5SM -RA BR OVC004
     FM310000 01010KT 4SM -RA BR OVC004
     FM310600 36013G17KT 3SM BR OVC004
     FM311500 35012G17KT 6SM BR OVC010=

USA.gov is the U.S. government's official web portal to all federal, state and local government web resources and services.